Time;durP1;ratioP1;P1;durP2;ratioP2;P2;SDS_P1;SDS_P2;PMS_P1;PMS_P2;Temp;Humidity;BMP_temperature;BMP_pressure;BME280_temperature;BME280_humidity;BME280_pressure;Samples;Min_cycle;Max_cycle;Signal;HPM_P1;HPM_P2
2024/01/21 00:01:40;;;;;;;3.70;1.83;;;2.30;56.00;;;;;;5093526;28;20427;-69
2024/01/21 00:04:08;;;;;;;0.93;0.93;;;2.30;56.00;;;;;;5093131;28;20090;-69
2024/01/21 00:06:34;;;;;;;1.75;1.65;;;2.30;55.90;;;;;;5093266;28;20107;-69
2024/01/21 00:09:00;;;;;;;0.80;0.80;;;2.30;55.90;;;;;;5093107;28;20063;-69
2024/01/21 00:11:25;;;;;;;1.38;1.27;;;2.30;55.90;;;;;;5093132;28;20148;-69
2024/01/21 00:13:51;;;;;;;1.90;1.80;;;2.30;56.00;;;;;;5093096;28;20468;-69
2024/01/21 00:16:16;;;;;;;1.20;1.20;;;2.30;55.80;;;;;;5092975;28;20031;-69
2024/01/21 00:18:42;;;;;;;0.60;0.60;;;2.30;55.70;;;;;;5093256;28;20031;-67
2024/01/21 00:21:08;;;;;;;0.75;0.75;;;2.30;55.60;;;;;;5092951;28;20111;-68
2024/01/21 00:23:33;;;;;;;0.98;0.98;;;2.40;55.70;;;;;;5093061;28;20145;-67
2024/01/21 00:25:58;;;;;;;0.80;0.80;;;2.40;55.50;;;;;;5074672;28;20020;-68
2024/01/21 00:28:24;;;;;;;0.93;0.93;;;2.40;55.30;;;;;;5093570;28;20056;-67
2024/01/21 00:30:50;;;;;;;1.13;1.13;;;2.50;55.40;;;;;;5092957;28;20031;-68
2024/01/21 00:33:16;;;;;;;1.00;1.00;;;2.50;55.30;;;;;;5093404;28;20030;-68
2024/01/21 00:35:41;;;;;;;0.70;0.70;;;2.50;55.30;;;;;;5092827;28;20475;-68
2024/01/21 00:38:07;;;;;;;0.70;0.70;;;2.50;55.30;;;;;;5092972;28;20035;-67
2024/01/21 00:40:33;;;;;;;0.80;0.80;;;2.50;55.40;;;;;;5091766;28;20024;-68
2024/01/21 00:42:59;;;;;;;1.00;1.00;;;2.50;55.50;;;;;;5092953;28;20104;-68
2024/01/21 00:45:28;;;;;;;1.00;1.00;;;2.60;55.50;;;;;;5092463;28;20028;-67
2024/01/21 00:47:53;;;;;;;1.30;1.25;;;2.60;55.40;;;;;;5092848;28;20090;-68
2024/01/21 00:50:19;;;;;;;1.15;1.13;;;2.60;55.40;;;;;;5092835;28;20512;-68
2024/01/21 00:52:45;;;;;;;1.23;1.17;;;2.60;55.30;;;;;;5092812;28;20032;-68
2024/01/21 00:55:10;;;;;;;1.20;1.15;;;2.60;55.20;;;;;;5092335;28;20036;-68
2024/01/21 00:57:36;;;;;;;1.75;1.65;;;2.60;55.20;;;;;;5092679;28;20028;-68
2024/01/21 01:00:02;;;;;;;1.10;1.08;;;2.60;55.10;;;;;;5092180;28;20434;-68
2024/01/21 01:02:27;;;;;;;0.75;0.75;;;2.60;55.20;;;;;;5092528;28;20028;-68
2024/01/21 01:04:53;;;;;;;0.70;0.70;;;2.60;55.10;;;;;;5092034;28;20124;-67
2024/01/21 01:07:19;;;;;;;1.58;1.48;;;2.60;55.30;;;;;;5092618;28;20035;-68
2024/01/21 01:09:44;;;;;;;1.38;1.27;;;2.50;55.40;;;;;;5091942;28;20510;-68
2024/01/21 01:12:10;;;;;;;0.90;0.85;;;2.50;55.20;;;;;;5092257;28;20024;-67
2024/01/21 01:14:40;;;;;;;1.60;1.50;;;2.60;55.30;;;;;;5073750;28;20032;-68
2024/01/21 01:17:06;;;;;;;0.90;0.90;;;2.60;55.40;;;;;;5092159;28;20035;-68
2024/01/21 01:19:32;;;;;;;0.80;0.80;;;2.60;55.50;;;;;;5091901;28;20471;-68
2024/01/21 01:21:57;;;;;;;1.63;1.52;;;2.60;55.60;;;;;;5091796;28;20032;-68
2024/01/21 01:24:23;;;;;;;0.90;0.88;;;2.60;55.40;;;;;;5092018;28;20044;-68
2024/01/21 01:26:48;;;;;;;0.90;0.90;;;2.50;55.30;;;;;;5091974;28;20421;-68
2024/01/21 01:29:14;;;;;;;1.10;1.10;;;2.50;55.30;;;;;;5091941;28;20040;-67
2024/01/21 01:31:39;;;;;;;2.85;2.60;;;2.40;55.30;;;;;;5091882;28;20063;-67
2024/01/21 01:34:05;;;;;;;0.60;0.60;;;2.40;55.20;;;;;;5091623;28;20498;-68
2024/01/21 01:36:31;;;;;;;0.70;0.70;;;2.30;55.20;;;;;;5091559;28;20383;-67
2024/01/21 01:38:56;;;;;;;1.08;1.08;;;2.30;55.30;;;;;;5073541;28;20036;-67
2024/01/21 01:41:22;;;;;;;0.70;0.70;;;2.20;55.40;;;;;;5091605;28;20463;-68
2024/01/21 01:43:48;;;;;;;0.88;0.88;;;2.10;55.40;;;;;;5091479;28;20032;-67
2024/01/21 01:46:14;;;;;;;0.93;0.93;;;2.10;55.50;;;;;;5091347;28;20020;-68
2024/01/21 01:48:40;;;;;;;2.30;2.10;;;2.00;55.50;;;;;;5091493;28;20020;-67
2024/01/21 01:51:07;;;;;;;0.80;0.80;;;2.00;55.60;;;;;;5091022;28;20094;-67
2024/01/21 01:53:34;;;;;;;1.20;1.10;;;2.00;55.60;;;;;;5091670;28;20085;-67
2024/01/21 01:56:00;;;;;;;0.88;0.88;;;2.10;55.30;;;;;;5091416;28;20032;-67
2024/01/21 01:58:27;;;;;;;1.00;0.98;;;2.10;55.20;;;;;;5091963;28;20048;-67
2024/01/21 02:00:53;;;;;;;0.82;0.82;;;2.20;55.30;;;;;;5091324;28;20098;-67
2024/01/21 02:03:19;;;;;;;2.42;1.35;;;2.30;55.40;;;;;;5091820;28;20031;-68
2024/01/21 02:05:45;;;;;;;1.42;1.33;;;2.40;55.40;;;;;;5091110;28;20094;-68
2024/01/21 02:08:12;;;;;;;0.75;0.75;;;2.50;55.50;;;;;;5091568;28;20085;-68
2024/01/21 02:10:37;;;;;;;0.70;0.70;;;2.50;55.30;;;;;;5091082;28;20433;-68
2024/01/21 02:13:03;;;;;;;1.52;1.42;;;2.60;55.20;;;;;;5091832;28;20024;-68
2024/01/21 02:15:28;;;;;;;0.80;0.80;;;2.70;55.20;;;;;;5091148;28;20039;-68
2024/01/21 02:17:54;;;;;;;0.80;0.80;;;2.70;55.20;;;;;;5091558;28;20038;-68
2024/01/21 02:20:22;;;;;;;0.60;0.60;;;2.80;55.30;;;;;;5091274;28;20506;-67
2024/01/21 02:22:48;;;;;;;0.60;0.60;;;2.80;55.40;;;;;;5091664;28;20054;-65
2024/01/21 02:25:14;;;;;;;1.08;1.05;;;2.90;55.30;;;;;;5091033;28;20043;-65
2024/01/21 02:27:39;;;;;;;1.42;1.20;;;2.90;55.30;;;;;;5091661;28;20028;-66
2024/01/21 02:30:06;;;;;;;0.60;0.60;;;3.00;55.50;;;;;;5091004;28;20059;-65
2024/01/21 02:32:31;;;;;;;1.25;1.25;;;3.00;55.30;;;;;;5091100;28;20090;-65
2024/01/21 02:34:57;;;;;;;1.27;1.27;;;3.00;55.30;;;;;;5091042;28;20036;-66
2024/01/21 02:37:22;;;;;;;0.70;0.70;;;3.10;55.70;;;;;;5091200;28;20428;-68
2024/01/21 02:39:48;;;;;;;0.70;0.70;;;3.20;55.40;;;;;;5090990;28;20028;-69
2024/01/21 02:42:14;;;;;;;5.68;1.50;;;3.20;55.30;;;;;;5091089;28;20110;-69
2024/01/21 02:44:40;;;;;;;0.68;0.68;;;3.20;55.10;;;;;;5090928;28;20563;-69
2024/01/21 02:47:07;;;;;;;0.68;0.68;;;3.30;55.00;;;;;;5090924;28;20461;-69
2024/01/21 02:49:33;;;;;;;0.68;0.68;;;3.30;54.60;;;;;;5090841;28;20077;-69
2024/01/21 02:51:58;;;;;;;0.80;0.80;;;3.30;54.40;;;;;;5090988;28;20460;-69
2024/01/21 02:54:25;;;;;;;0.90;0.90;;;3.40;53.90;;;;;;5090909;28;20028;-69
2024/01/21 02:56:50;;;;;;;1.35;1.25;;;3.40;53.80;;;;;;5090839;28;20032;-69
2024/01/21 02:59:16;;;;;;;0.93;0.93;;;3.50;52.80;;;;;;5090841;28;20383;-69
2024/01/21 03:01:42;;;;;;;0.70;0.70;;;3.50;52.50;;;;;;5091029;28;20119;-69
2024/01/21 03:04:11;;;;;;;0.70;0.70;;;3.60;51.90;;;;;;5092062;28;20028;-69
2024/01/21 03:06:41;;;;;;;0.93;0.93;;;3.60;51.40;;;;;;5094526;28;20071;-69
2024/01/21 03:09:07;;;;;;;0.70;0.70;;;3.70;50.90;;;;;;5094138;28;20043;-69
2024/01/21 03:11:32;;;;;;;1.00;1.00;;;3.70;50.80;;;;;;5094304;28;20059;-69
2024/01/21 03:13:58;;;;;;;0.98;0.98;;;3.70;50.30;;;;;;5094196;28;20032;-69
2024/01/21 03:16:24;;;;;;;1.42;1.33;;;3.70;50.10;;;;;;5094073;28;20032;-69
2024/01/21 03:18:50;;;;;;;0.60;0.60;;;3.70;50.30;;;;;;5094357;28;20101;-69
2024/01/21 03:21:15;;;;;;;0.60;0.60;;;3.70;49.70;;;;;;5093962;28;20024;-67
2024/01/21 03:23:41;;;;;;;1.05;1.00;;;3.80;49.40;;;;;;5093908;28;20036;-67
2024/01/21 03:26:06;;;;;;;0.65;0.65;;;3.80;49.00;;;;;;5075476;28;20034;-67
2024/01/21 03:28:32;;;;;;;0.65;0.65;;;3.80;48.90;;;;;;5094037;28;20115;-67
2024/01/21 03:30:58;;;;;;;0.60;0.60;;;3.90;48.70;;;;;;5093782;28;20043;-67
2024/01/21 03:33:25;;;;;;;2.08;0.98;;;3.90;48.50;;;;;;5075683;28;20253;-67
2024/01/21 03:35:51;;;;;;;0.60;0.60;;;3.90;48.20;;;;;;5093918;28;20032;-68
2024/01/21 03:38:16;;;;;;;0.77;0.77;;;3.90;48.10;;;;;;5094123;28;20489;-67
2024/01/21 03:40:42;;;;;;;0.70;0.70;;;4.00;47.70;;;;;;5075670;28;20047;-67
2024/01/21 03:43:07;;;;;;;0.70;0.70;;;4.00;47.50;;;;;;5093396;28;20107;-67
2024/01/21 03:45:33;;;;;;;2.85;1.83;;;4.00;47.70;;;;;;5093423;28;20161;-67
2024/01/21 03:47:58;;;;;;;1.83;1.70;;;4.00;47.60;;;;;;5093928;28;20028;-67
2024/01/21 03:50:24;;;;;;;0.50;0.50;;;4.10;47.00;;;;;;5093733;28;20045;-68
2024/01/21 03:52:49;;;;;;;0.60;0.60;;;4.10;47.30;;;;;;5093832;28;20029;-68
2024/01/21 03:55:19;;;;;;;0.55;0.55;;;4.10;47.00;;;;;;5093384;28;20039;-68
2024/01/21 03:57:45;;;;;;;0.70;0.70;;;4.20;47.00;;;;;;5093619;28;20028;-68
2024/01/21 04:00:11;;;;;;;1.38;1.13;;;4.20;46.50;;;;;;5075041;28;20446;-68
2024/01/21 04:02:37;;;;;;;0.60;0.60;;;4.20;46.00;;;;;;5093469;28;20115;-68
2024/01/21 04:05:03;;;;;;;0.63;0.63;;;4.30;46.00;;;;;;5092874;28;20115;-68
2024/01/21 04:07:29;;;;;;;0.70;0.70;;;4.40;46.10;;;;;;5093475;28;20043;-68
2024/01/21 04:09:55;;;;;;;0.80;0.80;;;4.40;45.50;;;;;;5093055;28;20027;-68
2024/01/21 04:12:20;;;;;;;0.80;0.80;;;4.50;45.00;;;;;;5093300;28;20472;-68
2024/01/21 04:14:46;;;;;;;1.67;1.02;;;4.50;44.60;;;;;;5074721;28;20054;-68
2024/01/21 04:17:11;;;;;;;0.60;0.60;;;4.60;44.30;;;;;;5093055;28;20432;-68
2024/01/21 04:19:37;;;;;;;0.60;0.60;;;4.60;44.50;;;;;;5092843;28;20407;-68
2024/01/21 04:22:05;;;;;;;0.55;0.55;;;4.70;43.90;;;;;;5092966;28;20391;-68
2024/01/21 04:24:31;;;;;;;1.08;1.08;;;4.80;43.90;;;;;;5092947;28;20103;-68
2024/01/21 04:26:56;;;;;;;0.70;0.70;;;4.80;43.70;;;;;;5092828;28;20447;-67
2024/01/21 04:29:22;;;;;;;0.68;0.68;;;4.80;44.30;;;;;;5092923;28;20035;-66
2024/01/21 04:31:48;;;;;;;0.65;0.65;;;4.90;44.00;;;;;;5092882;28;20062;-67
2024/01/21 04:34:13;;;;;;;0.68;0.68;;;4.90;44.20;;;;;;5092598;28;20089;-66
2024/01/21 04:36:39;;;;;;;0.65;0.65;;;4.90;44.10;;;;;;5092750;28;20034;-67
2024/01/21 04:39:08;;;;;;;0.50;0.50;;;5.00;43.60;;;;;;5074538;28;20387;-67
2024/01/21 04:41:34;;;;;;;0.60;0.60;;;5.00;43.40;;;;;;5092725;28;20024;-66
2024/01/21 04:43:59;;;;;;;0.70;0.70;;;5.10;42.60;;;;;;5092450;28;20040;-67
2024/01/21 04:46:28;;;;;;;0.63;0.63;;;5.20;42.60;;;;;;5092419;28;20043;-66
2024/01/21 04:48:53;;;;;;;0.82;0.82;;;5.30;43.00;;;;;;5092521;28;20028;-67
2024/01/21 04:51:19;;;;;;;0.60;0.60;;;5.30;42.70;;;;;;5092313;28;20567;-66
2024/01/21 04:53:44;;;;;;;0.60;0.60;;;5.40;42.50;;;;;;5092426;28;20032;-67
2024/01/21 04:56:19;;;;;;;0.60;0.60;;;5.40;42.30;;;;;;5092385;28;20024;-67
2024/01/21 04:58:45;;;;;;;0.60;0.60;;;5.50;41.80;;;;;;5092366;28;20085;-68
2024/01/21 05:01:11;;;;;;;0.65;0.65;;;5.60;41.60;;;;;;5092337;28;20590;-68
2024/01/21 05:03:37;;;;;;;0.50;0.50;;;5.60;41.50;;;;;;5092441;28;20433;-68
2024/01/21 05:06:03;;;;;;;4.85;1.08;;;5.60;40.80;;;;;;5091949;28;20035;-68
2024/01/21 05:08:29;;;;;;;0.55;0.55;;;5.70;40.90;;;;;;5091986;28;20533;-68
2024/01/21 05:10:55;;;;;;;0.50;0.50;;;5.70;40.80;;;;;;5092081;28;20021;-68
2024/01/21 05:13:20;;;;;;;0.70;0.70;;;5.80;40.50;;;;;;5092487;28;20051;-68
2024/01/21 05:15:46;;;;;;;0.70;0.70;;;5.80;40.40;;;;;;5073740;28;20070;-68
2024/01/21 05:18:11;;;;;;;0.60;0.60;;;5.80;40.30;;;;;;5092668;28;20032;-68
2024/01/21 05:20:37;;;;;;;0.60;0.60;;;5.80;39.70;;;;;;5091845;28;20031;-68
2024/01/21 05:23:03;;;;;;;0.50;0.50;;;5.90;39.90;;;;;;5092205;28;20036;-68
2024/01/21 05:25:28;;;;;;;0.65;0.65;;;5.90;39.60;;;;;;5091671;28;20096;-68
2024/01/21 05:27:55;;;;;;;3.70;1.55;;;6.00;39.60;;;;;;5091628;28;20103;-68
2024/01/21 05:30:21;;;;;;;0.50;0.50;;;6.00;39.40;;;;;;5091627;28;20020;-68
2024/01/21 05:32:50;;;;;;;0.60;0.60;;;6.00;39.40;;;;;;5091923;28;20035;-68
2024/01/21 05:35:15;;;;;;;0.60;0.60;;;6.00;39.30;;;;;;5091803;28;20024;-68
2024/01/21 05:37:41;;;;;;;0.52;0.52;;;6.00;38.80;;;;;;5092208;28;20070;-68
2024/01/21 05:40:07;;;;;;;0.65;0.65;;;6.00;38.90;;;;;;5091522;28;20046;-68
2024/01/21 05:42:32;;;;;;;0.73;0.73;;;6.00;38.80;;;;;;5091788;28;20090;-68
2024/01/21 05:44:58;;;;;;;0.90;0.90;;;6.00;38.60;;;;;;5073227;28;20059;-68
2024/01/21 05:47:24;;;;;;;0.90;0.90;;;6.00;38.70;;;;;;5091769;28;20379;-68
2024/01/21 05:49:49;;;;;;;0.60;0.60;;;6.00;38.70;;;;;;5091487;28;20020;-68
2024/01/21 05:52:15;;;;;;;1.67;1.45;;;6.00;38.90;;;;;;5091874;28;20028;-68
2024/01/21 05:54:40;;;;;;;0.60;0.60;;;6.00;39.00;;;;;;5091339;28;20051;-68
2024/01/21 05:57:06;;;;;;;0.60;0.60;;;6.00;38.80;;;;;;5091532;28;20063;-68
2024/01/21 05:59:32;;;;;;;0.60;0.60;;;5.90;38.60;;;;;;5091111;28;20028;-68
2024/01/21 06:01:57;;;;;;;1.73;1.38;;;5.90;39.00;;;;;;5091674;28;20111;-68
2024/01/21 06:04:23;;;;;;;0.60;0.60;;;5.90;39.10;;;;;;5091062;28;20123;-68
2024/01/21 06:06:49;;;;;;;0.82;0.82;;;5.80;39.40;;;;;;5091565;28;20032;-68
2024/01/21 06:09:15;;;;;;;0.55;0.55;;;5.80;39.50;;;;;;5091751;28;20027;-66
2024/01/21 06:11:41;;;;;;;0.60;0.60;;;5.80;39.60;;;;;;5091457;28;20064;-66
2024/01/21 06:14:07;;;;;;;0.45;0.45;;;5.80;39.50;;;;;;5091304;28;20146;-66
2024/01/21 06:16:33;;;;;;;2.35;1.77;;;5.90;39.30;;;;;;5073155;28;20055;-66
2024/01/21 06:18:58;;;;;;;0.60;0.60;;;5.80;39.50;;;;;;5091372;28;20032;-66
2024/01/21 06:21:24;;;;;;;0.65;0.65;;;5.80;39.00;;;;;;5091688;28;20039;-67
2024/01/21 06:23:50;;;;;;;0.55;0.55;;;5.90;38.70;;;;;;5091445;28;20024;-66
2024/01/21 06:26:17;;;;;;;0.60;0.60;;;5.90;38.30;;;;;;5091198;28;20472;-66
2024/01/21 06:28:43;;;;;;;0.60;0.60;;;5.90;38.40;;;;;;5091249;28;20052;-66
2024/01/21 06:31:08;;;;;;;0.57;0.57;;;5.90;38.50;;;;;;5091057;28;20483;-66
2024/01/21 06:33:34;;;;;;;0.60;0.60;;;6.00;38.50;;;;;;5091257;28;20038;-66
2024/01/21 06:35:59;;;;;;;0.60;0.60;;;6.00;38.30;;;;;;5091016;28;20028;-66
2024/01/21 06:38:25;;;;;;;0.60;0.60;;;6.10;38.50;;;;;;5092275;28;20032;-66
2024/01/21 06:40:51;;;;;;;0.60;0.60;;;6.10;38.50;;;;;;5095333;28;20032;-66
2024/01/21 06:43:17;;;;;;;3.30;1.00;;;6.10;38.40;;;;;;5095561;28;20027;-66
2024/01/21 06:45:42;;;;;;;0.60;0.60;;;6.10;38.10;;;;;;5094922;28;19961;-66
2024/01/21 06:48:08;;;;;;;1.40;1.33;;;6.10;37.80;;;;;;5095357;28;20123;-66
2024/01/21 06:50:33;;;;;;;0.60;0.60;;;6.10;37.70;;;;;;5094888;28;20024;-66
2024/01/21 06:52:59;;;;;;;0.65;0.65;;;6.20;37.70;;;;;;5094867;28;20039;-66
2024/01/21 06:55:25;;;;;;;0.65;0.65;;;6.20;37.70;;;;;;5095221;28;20027;-66
2024/01/21 06:57:50;;;;;;;0.60;0.60;;;6.10;37.80;;;;;;5095106;28;20053;-66
2024/01/21 07:00:16;;;;;;;0.52;0.52;;;6.10;38.10;;;;;;5076897;28;21037;-66
2024/01/21 07:02:42;;;;;;;0.60;0.60;;;6.00;38.10;;;;;;5094906;28;20047;-66
2024/01/21 07:05:08;;;;;;;0.70;0.70;;;6.00;38.40;;;;;;5094643;28;20024;-66
2024/01/21 07:07:33;;;;;;;1.45;1.35;;;5.90;38.50;;;;;;5094761;28;20055;-66
2024/01/21 07:09:59;;;;;;;0.80;0.80;;;5.90;38.60;;;;;;5094606;28;20024;-67
2024/01/21 07:12:25;;;;;;;0.60;0.60;;;5.80;38.60;;;;;;5095105;28;20024;-66
2024/01/21 07:14:51;;;;;;;0.60;0.60;;;5.80;39.00;;;;;;5094397;28;20093;-66
2024/01/21 07:17:16;;;;;;;0.80;0.80;;;5.80;39.40;;;;;;5094768;28;20036;-66
2024/01/21 07:19:42;;;;;;;0.60;0.60;;;5.80;39.50;;;;;;5094413;28;20028;-66
2024/01/21 07:22:08;;;;;;;1.10;0.90;;;5.80;39.80;;;;;;5094451;28;20032;-66
2024/01/21 07:24:34;;;;;;;4.90;1.75;;;5.80;39.90;;;;;;5094153;28;20421;-66
2024/01/21 07:27:00;;;;;;;0.60;0.60;;;5.70;39.90;;;;;;5094480;28;20481;-66
2024/01/21 07:29:26;;;;;;;0.60;0.60;;;5.80;39.60;;;;;;5094347;28;20020;-66
2024/01/21 07:31:51;;;;;;;0.60;0.60;;;5.80;39.00;;;;;;5094217;28;20096;-66
2024/01/21 07:34:17;;;;;;;0.60;0.60;;;5.80;38.40;;;;;;5075960;28;20024;-65
2024/01/21 07:36:43;;;;;;;0.60;0.60;;;5.80;38.20;;;;;;5094122;28;20047;-66
2024/01/21 07:39:08;;;;;;;0.50;0.50;;;5.90;38.10;;;;;;5093806;28;20495;-66
2024/01/21 07:41:34;;;;;;;2.05;1.02;;;6.00;37.40;;;;;;5093978;28;20039;-67
2024/01/21 07:43:59;;;;;;;0.60;0.60;;;6.00;37.50;;;;;;5093855;28;20032;-67
2024/01/21 07:46:25;;;;;;;0.60;0.60;;;6.00;37.30;;;;;;5093787;28;20036;-65
2024/01/21 07:48:51;;;;;;;0.60;0.60;;;6.00;37.20;;;;;;5093647;28;20086;-66
2024/01/21 07:51:18;;;;;;;0.60;0.60;;;6.00;36.80;;;;;;5093341;28;20028;-65
2024/01/21 07:53:44;;;;;;;0.82;0.82;;;6.10;36.90;;;;;;5093609;28;20073;-66
2024/01/21 07:56:10;;;;;;;0.63;0.63;;;6.10;37.00;;;;;;5093491;28;20103;-66
2024/01/21 07:58:36;;;;;;;0.60;0.60;;;6.10;37.20;;;;;;5093687;28;20035;-66
2024/01/21 08:01:02;;;;;;;1.75;1.65;;;6.10;37.40;;;;;;5093565;28;20502;-66
2024/01/21 08:03:28;;;;;;;0.70;0.70;;;6.10;37.30;;;;;;5093471;28;20479;-65
2024/01/21 08:05:54;;;;;;;0.70;0.70;;;6.10;37.50;;;;;;5093315;28;20116;-66
2024/01/21 08:08:20;;;;;;;2.58;1.20;;;6.10;38.00;;;;;;5093853;28;20032;-65
2024/01/21 08:10:45;;;;;;;0.88;0.88;;;6.20;38.40;;;;;;5093354;28;20039;-66
2024/01/21 08:13:11;;;;;;;0.60;0.60;;;6.20;38.80;;;;;;5093948;28;20464;-66
2024/01/21 08:15:37;;;;;;;0.47;0.47;;;6.10;39.20;;;;;;5093244;28;20024;-66
2024/01/21 08:18:05;;;;;;;0.60;0.60;;;6.20;39.70;;;;;;5093702;28;20487;-66
2024/01/21 08:20:30;;;;;;;0.63;0.63;;;6.30;40.00;;;;;;5093303;28;20020;-66
2024/01/21 08:22:56;;;;;;;1.10;1.10;;;6.30;40.20;;;;;;5093620;28;20028;-65
2024/01/21 08:25:21;;;;;;;0.60;0.60;;;6.50;40.10;;;;;;5092994;28;20085;-66
2024/01/21 08:27:47;;;;;;;0.65;0.65;;;6.50;40.40;;;;;;5092755;28;20129;-65
2024/01/21 08:30:13;;;;;;;0.68;0.68;;;6.50;40.30;;;;;;5093384;28;20053;-65
2024/01/21 08:32:38;;;;;;;0.70;0.70;;;6.60;40.60;;;;;;5074833;28;20024;-66
2024/01/21 08:35:05;;;;;;;0.50;0.50;;;6.60;40.80;;;;;;5092865;28;20028;-66
2024/01/21 08:37:30;;;;;;;2.45;0.88;;;6.70;40.70;;;;;;5092774;28;20032;-66
2024/01/21 08:39:59;;;;;;;0.70;0.70;;;6.70;40.30;;;;;;5092951;28;20092;-66
2024/01/21 08:42:24;;;;;;;1.38;1.13;;;6.80;40.70;;;;;;5093266;28;20036;-66
2024/01/21 08:44:50;;;;;;;0.60;0.60;;;6.80;40.70;;;;;;5074349;28;20035;-66
2024/01/21 08:47:16;;;;;;;0.50;0.50;;;6.90;40.30;;;;;;5093098;28;20024;-65
2024/01/21 08:49:41;;;;;;;0.60;0.60;;;7.00;40.00;;;;;;5092520;28;20028;-66
2024/01/21 08:52:07;;;;;;;0.50;0.50;;;7.00;39.30;;;;;;5092786;28;20360;-66
2024/01/21 08:54:32;;;;;;;0.60;0.60;;;7.10;39.30;;;;;;5092613;28;20024;-65
2024/01/21 08:56:58;;;;;;;0.70;0.70;;;7.20;39.10;;;;;;5092671;28;20383;-66
2024/01/21 08:59:23;;;;;;;0.70;0.70;;;7.20;39.00;;;;;;5092696;28;20084;-66
2024/01/21 09:01:49;;;;;;;0.70;0.70;;;7.30;38.80;;;;;;5091530;28;20020;-66
2024/01/21 09:04:15;;;;;;;0.50;0.50;;;7.30;38.80;;;;;;5091991;28;20016;-66
2024/01/21 09:06:41;;;;;;;0.60;0.60;;;7.30;38.80;;;;;;5091898;28;20027;-66
2024/01/21 09:09:11;;;;;;;0.60;0.60;;;7.40;38.20;;;;;;5092325;28;20485;-66
2024/01/21 09:11:37;;;;;;;0.60;0.60;;;7.40;38.30;;;;;;5092439;28;20471;-66
2024/01/21 09:14:03;;;;;;;1.45;1.20;;;7.50;38.50;;;;;;5092155;28;20502;-66
2024/01/21 09:16:29;;;;;;;0.60;0.60;;;7.50;38.40;;;;;;5091735;28;20028;-66
2024/01/21 09:18:55;;;;;;;0.88;0.88;;;7.50;38.20;;;;;;5090863;28;20024;-67
2024/01/21 09:21:21;;;;;;;0.60;0.60;;;7.60;38.90;;;;;;5092074;28;20028;-67
2024/01/21 09:23:46;;;;;;;0.50;0.50;;;7.60;39.20;;;;;;5091907;28;20048;-67
2024/01/21 09:26:12;;;;;;;0.70;0.70;;;7.70;39.60;;;;;;5091648;28;20065;-66
2024/01/21 09:28:38;;;;;;;0.60;0.60;;;7.70;39.60;;;;;;5090963;28;20082;-67
2024/01/21 09:31:03;;;;;;;1.02;1.02;;;7.80;39.70;;;;;;5091587;28;20058;-66
2024/01/21 09:33:29;;;;;;;0.60;0.60;;;7.90;39.90;;;;;;5091806;28;20047;-66
2024/01/21 09:35:55;;;;;;;0.60;0.60;;;7.90;39.40;;;;;;5091703;28;20024;-67
2024/01/21 09:38:23;;;;;;;0.60;0.60;;;8.00;39.30;;;;;;5090429;28;20051;-69
2024/01/21 09:40:56;;;;;;;1.05;1.05;;;8.00;39.50;;;;;;5091270;28;20004;-68
2024/01/21 09:43:27;;;;;;;0.60;0.60;;;8.10;39.30;;;;;;5091765;28;20061;-68
2024/01/21 09:45:52;;;;;;;;;;;8.20;39.20;;;;;;5092057;28;20059;-68
2024/01/21 09:48:18;;;;;;;0.80;0.80;;;8.20;39.10;;;;;;5091690;28;19911;-68
2024/01/21 09:50:45;;;;;;;0.50;0.50;;;8.30;38.80;;;;;;5091521;28;20565;-68
2024/01/21 09:53:10;;;;;;;0.60;0.60;;;8.40;38.90;;;;;;5091539;28;20418;-68
2024/01/21 09:55:36;;;;;;;0.60;0.60;;;8.40;38.70;;;;;;5091520;28;20016;-69
2024/01/21 09:58:06;;;;;;;0.88;0.88;;;8.50;38.00;;;;;;5091673;28;20032;-68
2024/01/21 10:00:32;;;;;;;0.60;0.60;;;8.60;38.40;;;;;;5091826;28;20028;-68
2024/01/21 10:02:58;;;;;;;2.15;1.42;;;8.70;37.90;;;;;;5091452;28;20368;-68
2024/01/21 10:05:23;;;;;;;0.60;0.60;;;8.80;38.40;;;;;;5091440;28;20036;-68
2024/01/21 10:07:49;;;;;;;0.60;0.60;;;8.80;37.90;;;;;;5091344;28;20100;-68
2024/01/21 10:10:16;;;;;;;0.50;0.50;;;8.90;37.70;;;;;;5091386;28;20090;-69
2024/01/21 10:12:42;;;;;;;0.50;0.50;;;9.00;37.30;;;;;;5092592;28;20039;-68
2024/01/21 10:15:11;;;;;;;0.60;0.60;;;9.10;36.60;;;;;;5095909;28;20063;-68
2024/01/21 10:17:39;;;;;;;0.70;0.70;;;9.20;36.40;;;;;;5095673;28;20024;-68
2024/01/21 10:20:10;;;;;;;0.50;0.50;;;9.30;36.50;;;;;;5096365;28;20056;-68
2024/01/21 10:22:35;;;;;;;0.80;0.80;;;9.40;36.60;;;;;;5077689;28;20065;-68
2024/01/21 10:25:03;;;;;;;0.60;0.60;;;9.60;36.80;;;;;;5095584;28;20341;-68
2024/01/21 10:27:28;;;;;;;0.60;0.60;;;9.80;36.50;;;;;;5095377;28;20020;-68
2024/01/21 10:29:57;;;;;;;0.50;0.50;;;9.90;36.20;;;;;;5095527;28;20110;-69
2024/01/21 10:32:22;;;;;;;1.17;1.13;;;10.00;34.90;;;;;;5095392;28;20028;-69
2024/01/21 10:34:50;;;;;;;0.60;0.60;;;10.20;35.20;;;;;;5095562;28;20054;-69
2024/01/21 10:37:16;;;;;;;0.60;0.60;;;10.30;35.30;;;;;;5095109;28;20111;-68
2024/01/21 10:39:47;;;;;;;0.40;0.40;;;10.40;34.40;;;;;;5095653;28;20060;-69
2024/01/21 10:42:15;;;;;;;0.50;0.50;;;10.40;33.60;;;;;;5095187;28;20047;-69
2024/01/21 10:44:43;;;;;;;1.13;1.00;;;10.50;31.70;;;;;;5095510;28;20487;-69
2024/01/21 10:47:09;;;;;;;1.75;0.98;;;10.40;32.00;;;;;;5094907;28;20028;-69
2024/01/21 10:49:35;;;;;;;1.48;1.38;;;10.40;32.00;;;;;;5077125;28;20747;-67
2024/01/21 10:52:01;;;;;;;0.52;0.52;;;10.50;32.70;;;;;;5094995;28;20035;-67
2024/01/21 10:54:27;;;;;;;0.70;0.70;;;10.70;32.30;;;;;;5095204;28;20028;-67
2024/01/21 10:56:53;;;;;;;1.85;1.40;;;10.70;31.90;;;;;;5094671;28;20024;-68
2024/01/21 10:59:20;;;;;;;0.50;0.50;;;10.80;32.00;;;;;;5094945;28;20425;-68
2024/01/21 11:01:46;;;;;;;0.50;0.50;;;10.90;32.20;;;;;;5094974;28;20515;-68
2024/01/21 11:04:13;;;;;;;0.98;0.98;;;11.00;31.50;;;;;;5094846;28;20039;-68
2024/01/21 11:06:42;;;;;;;0.50;0.50;;;10.90;30.80;;;;;;5094672;28;20116;-68
2024/01/21 11:09:08;;;;;;;0.40;0.40;;;10.90;31.10;;;;;;5094659;28;20036;-68
2024/01/21 11:11:44;;;;;;;0.60;0.60;;;10.90;31.00;;;;;;5094538;28;20024;-68
2024/01/21 11:14:33;;;;;;;0.60;0.60;;;10.80;31.10;;;;;;5094645;28;20031;-68
2024/01/21 11:17:05;;;;;;;2.15;1.92;;;10.90;31.50;;;;;;5076490;28;20028;-68
2024/01/21 11:19:49;;;;;;;0.50;0.50;;;10.90;31.20;;;;;;5094806;28;20043;-68
2024/01/21 11:22:16;;;;;;;0.70;0.70;;;10.80;31.40;;;;;;5094666;28;20024;-68
2024/01/21 11:24:43;;;;;;;2.33;0.98;;;10.70;31.60;;;;;;5075440;28;20043;-68
2024/01/21 11:27:19;;;;;;;1.20;1.20;;;10.70;31.60;;;;;;5075878;28;20024;-68
2024/01/21 11:29:44;;;;;;;0.60;0.60;;;10.80;31.90;;;;;;5094707;28;20040;-68
2024/01/21 11:32:26;;;;;;;0.60;0.60;;;10.90;32.00;;;;;;5093893;28;20054;-68
2024/01/21 11:34:53;;;;;;;0.85;0.85;;;10.90;32.20;;;;;;5094360;28;20387;-69
2024/01/21 11:37:21;;;;;;;1.17;1.08;;;10.90;32.10;;;;;;5094325;28;20160;-68
2024/01/21 11:39:47;;;;;;;0.50;0.50;;;10.80;32.20;;;;;;5093924;28;20028;-68
2024/01/21 11:42:13;;;;;;;0.82;0.82;;;10.80;32.20;;;;;;5094052;28;20028;-68
2024/01/21 11:44:39;;;;;;;0.60;0.60;;;10.70;32.50;;;;;;5094100;28;20024;-68
2024/01/21 11:47:06;;;;;;;3.20;1.90;;;10.70;32.70;;;;;;5093739;28;20031;-68
2024/01/21 11:49:33;;;;;;;0.75;0.75;;;10.70;33.00;;;;;;5093976;28;20028;-68
2024/01/21 11:52:00;;;;;;;0.70;0.70;;;10.60;33.30;;;;;;5093769;28;20377;-68
2024/01/21 11:54:26;;;;;;;0.70;0.70;;;10.60;33.50;;;;;;5093959;28;20028;-68
2024/01/21 11:56:55;;;;;;;1.20;1.20;;;10.70;33.70;;;;;;5093635;28;20394;-68
2024/01/21 11:59:21;;;;;;;0.57;0.57;;;10.70;33.70;;;;;;5093890;28;20103;-70
2024/01/21 12:01:48;;;;;;;0.60;0.60;;;10.70;34.00;;;;;;5093659;28;20392;-70
2024/01/21 12:04:14;;;;;;;0.50;0.50;;;10.60;34.20;;;;;;5093575;28;20400;-70
2024/01/21 12:06:42;;;;;;;0.65;0.65;;;10.60;34.50;;;;;;5093495;28;20020;-70
2024/01/21 12:09:08;;;;;;;1.00;1.00;;;10.60;34.70;;;;;;5093293;28;20028;-69
2024/01/21 12:11:37;;;;;;;0.50;0.50;;;10.70;35.10;;;;;;5075188;28;20031;-69
2024/01/21 12:14:06;;;;;;;1.20;1.13;;;10.70;35.20;;;;;;5093174;28;20071;-69
2024/01/21 12:16:35;;;;;;;0.80;0.80;;;10.70;35.30;;;;;;5093242;28;20032;-69
2024/01/21 12:19:01;;;;;;;0.50;0.50;;;10.80;35.70;;;;;;5092999;28;20233;-70
2024/01/21 12:21:28;;;;;;;2.63;2.13;;;10.80;35.60;;;;;;5093108;28;20498;-69
2024/01/21 12:23:54;;;;;;;1.13;1.13;;;10.90;35.90;;;;;;5092794;28;20356;-70
2024/01/21 12:26:21;;;;;;;1.75;1.13;;;11.00;36.00;;;;;;5093391;28;20058;-69
2024/01/21 12:28:59;;;;;;;0.60;0.60;;;11.10;35.80;;;;;;5093007;28;20054;-70
2024/01/21 12:31:31;;;;;;;0.60;0.60;;;11.00;36.00;;;;;;5093106;28;20043;-69
2024/01/21 12:33:58;;;;;;;0.90;0.90;;;11.00;36.00;;;;;;5093001;28;20040;-69
2024/01/21 12:36:23;;;;;;;0.60;0.60;;;11.00;36.30;;;;;;5092055;28;20020;-69
2024/01/21 12:38:52;;;;;;;0.90;0.90;;;11.00;36.70;;;;;;5092939;28;20474;-69
2024/01/21 12:41:18;;;;;;;1.10;1.02;;;11.00;36.90;;;;;;5092622;28;20099;-69
2024/01/21 12:43:45;;;;;;;0.85;0.85;;;10.90;37.20;;;;;;5074528;28;20127;-69
2024/01/21 12:46:14;;;;;;;1.65;1.30;;;10.90;37.50;;;;;;5092610;28;20103;-69
2024/01/21 12:48:40;;;;;;;0.70;0.70;;;11.00;37.80;;;;;;5092869;28;20043;-69
2024/01/21 12:51:06;;;;;;;0.52;0.52;;;11.00;37.80;;;;;;5092549;28;20099;-69